createdAt,value
2022-11-17T00:10:00.139Z,1011.49
2022-11-17T00:20:00.142Z,1011.46
2022-11-17T00:30:00.132Z,1011.28
2022-11-17T00:40:01.089Z,1011.31
2022-11-17T00:50:00.188Z,1011.24
2022-11-17T01:00:01.096Z,1011.32
2022-11-17T01:10:00.964Z,1011.26
2022-11-17T01:20:00.151Z,1011.20
2022-11-17T01:30:01.031Z,1011.16
2022-11-17T01:40:01.664Z,1011.14
2022-11-17T01:50:01.181Z,1010.98
2022-11-17T02:00:01.040Z,1010.81
2022-11-17T02:10:01.023Z,1010.93
2022-11-17T02:20:01.082Z,1010.84
2022-11-17T02:30:02.575Z,1010.84
2022-11-17T02:40:01.309Z,1010.86
2022-11-17T02:50:00.136Z,1010.72
2022-11-17T03:00:01.011Z,1010.54
2022-11-17T03:10:02.542Z,1010.47
2022-11-17T03:20:01.336Z,1010.57
2022-11-17T03:30:01.066Z,1010.43
2022-11-17T03:40:00.989Z,1010.53
2022-11-17T03:50:02.293Z,1010.46
2022-11-17T04:00:01.176Z,1010.46
2022-11-17T04:10:01.220Z,1010.43
2022-11-17T04:20:01.314Z,1010.33
2022-11-17T04:30:00.985Z,1010.18
2022-11-17T04:40:01.278Z,1010.21
2022-11-17T04:50:01.478Z,1010.18
2022-11-17T05:00:01.332Z,1010.12
2022-11-17T05:10:00.994Z,1010.07
2022-11-17T05:20:00.152Z,1010.06
2022-11-17T05:30:00.142Z,1009.88
2022-11-17T05:40:01.038Z,1009.75
2022-11-17T05:50:01.751Z,1009.71
2022-11-17T06:00:01.142Z,1009.71
2022-11-17T06:10:01.039Z,1009.76
2022-11-17T06:20:01.167Z,1009.69
2022-11-17T06:30:00.160Z,1009.59
2022-11-17T06:40:01.883Z,1009.56
2022-11-17T06:50:02.176Z,1009.49
2022-11-17T07:10:00.167Z,1009.24
2022-11-17T07:20:01.230Z,1009.22
2022-11-17T07:30:01.050Z,1009.19
2022-11-17T07:40:01.492Z,1009.27
2022-11-17T07:50:01.202Z,1009.28
2022-11-17T08:10:01.288Z,1009.16
2022-11-17T08:20:01.047Z,1009.04
2022-11-17T08:30:00.149Z,1008.95
2022-11-17T08:40:02.640Z,1008.93
2022-11-17T08:50:01.349Z,1008.93
2022-11-17T09:00:01.617Z,1008.82
2022-11-17T09:10:01.081Z,1008.97
2022-11-17T09:20:03.068Z,1009.06
2022-11-17T09:30:02.858Z,1009.16
2022-11-17T09:40:00.275Z,1009.09
2022-11-17T09:50:01.034Z,1009.01
2022-11-17T10:00:02.189Z,1008.97
2022-11-17T10:10:01.456Z,1009.03
2022-11-17T10:20:02.025Z,1008.93
2022-11-17T10:30:01.264Z,1008.82
2022-11-17T10:40:02.065Z,1008.72
2022-11-17T10:50:00.156Z,1008.64
2022-11-17T11:00:01.970Z,1008.46
2022-11-17T11:10:01.428Z,1008.23
2022-11-17T11:20:00.252Z,1008.21
2022-11-17T11:30:01.571Z,1008.16
2022-11-17T11:40:02.644Z,1008.04
2022-11-17T11:50:00.135Z,1007.92
2022-11-17T12:00:04.253Z,1007.95
2022-11-17T12:10:01.998Z,1007.84
2022-11-17T12:20:04.765Z,1007.90
2022-11-17T12:30:00.169Z,1007.80
2022-11-17T12:40:00.977Z,1007.74
2022-11-17T12:50:00.128Z,1007.74
2022-11-17T13:00:01.359Z,1007.83
2022-11-17T13:10:01.440Z,1007.81
2022-11-17T13:20:02.790Z,1007.70
2022-11-17T13:30:01.528Z,1007.72
2022-11-17T13:40:01.298Z,1007.66
2022-11-17T13:50:01.344Z,1007.58
2022-11-17T14:00:01.258Z,1007.62
2022-11-17T14:10:01.489Z,1007.53
2022-11-17T14:20:01.523Z,1007.48
2022-11-17T14:30:01.060Z,1007.51
2022-11-17T14:40:01.252Z,1007.38
2022-11-17T14:50:00.138Z,1007.59
2022-11-17T15:00:02.957Z,1007.50
2022-11-17T15:10:02.858Z,1007.65
2022-11-17T15:20:00.154Z,1007.60
2022-11-17T15:30:01.082Z,1007.55
2022-11-17T15:40:02.328Z,1007.68
2022-11-17T15:50:01.117Z,1007.73
2022-11-17T16:00:01.309Z,1007.82
2022-11-17T16:10:00.144Z,1007.81
2022-11-17T16:20:01.373Z,1007.74
2022-11-17T16:30:02.268Z,1007.69
2022-11-17T16:40:01.281Z,1007.76
2022-11-17T16:50:01.248Z,1007.72
2022-11-17T17:00:01.321Z,1007.70
2022-11-17T17:10:01.260Z,1007.63
2022-11-17T17:20:01.257Z,1007.81
2022-11-17T17:30:01.033Z,1007.86
2022-11-17T17:50:01.293Z,1007.83
2022-11-17T18:00:01.479Z,1007.96
2022-11-17T18:10:01.085Z,1007.98
2022-11-17T18:20:01.293Z,1008.00
2022-11-17T18:30:01.839Z,1007.95
2022-11-17T18:40:01.179Z,1008.08
2022-11-17T18:50:01.202Z,1008.04
2022-11-17T19:10:01.385Z,1008.02
2022-11-17T19:20:00.182Z,1008.06
2022-11-17T19:30:01.096Z,1007.93
2022-11-17T19:40:01.664Z,1007.94
2022-11-17T19:50:01.671Z,1008.05
2022-11-17T20:00:02.010Z,1008.11
2022-11-17T20:10:01.259Z,1008.13
2022-11-17T20:20:00.171Z,1008.06
2022-11-17T20:30:01.323Z,1008.29
2022-11-17T20:40:00.964Z,1008.28
2022-11-17T20:50:01.482Z,1008.39
2022-11-17T21:00:00.158Z,1008.44
2022-11-17T21:10:01.207Z,1008.41
2022-11-17T21:20:01.621Z,1008.47
2022-11-17T21:30:01.003Z,1008.50
2022-11-17T21:40:01.363Z,1008.41
2022-11-17T21:50:01.535Z,1008.42
2022-11-17T22:00:01.010Z,1008.56
2022-11-17T22:10:01.993Z,1008.59
2022-11-17T22:20:01.551Z,1008.63
2022-11-17T22:30:01.249Z,1008.64
2022-11-17T22:40:01.250Z,1008.71
2022-11-17T22:50:01.240Z,1008.77
2022-11-17T23:00:01.342Z,1008.95
2022-11-17T23:10:00.132Z,1008.83
2022-11-17T23:20:00.181Z,1008.94
2022-11-17T23:30:01.935Z,1008.98
2022-11-17T23:40:00.172Z,1009.00
2022-11-17T23:50:00.140Z,1009.23
